createdAt,value
2019-02-16T00:00:52.900Z,24.85
2019-02-16T00:01:52.912Z,24.92
2019-02-16T00:02:53.944Z,24.95
2019-02-16T00:03:52.943Z,24.81
2019-02-16T00:04:53.978Z,24.83
2019-02-16T00:05:52.993Z,24.91
2019-02-16T00:06:53.001Z,24.91
2019-02-16T00:07:54.022Z,24.78
2019-02-16T00:08:53.040Z,24.85
2019-02-16T00:09:54.056Z,24.78
2019-02-16T00:10:53.067Z,24.86
2019-02-16T00:11:53.093Z,24.86
2019-02-16T00:12:54.110Z,24.98
2019-02-16T00:13:53.135Z,25.04
2019-02-16T00:14:54.168Z,25.00
2019-02-16T00:15:53.151Z,24.96
2019-02-16T00:16:53.170Z,24.93
2019-02-16T00:17:54.219Z,25.01
2019-02-16T00:18:53.204Z,24.95
2019-02-16T00:19:54.230Z,24.93
2019-02-16T00:20:53.235Z,24.98
2019-02-16T00:21:53.252Z,25.06
2019-02-16T00:22:54.280Z,25.10
2019-02-16T00:23:53.288Z,25.10
2019-02-16T00:24:54.315Z,25.06
2019-02-16T00:25:53.372Z,25.08
2019-02-16T00:26:53.402Z,25.01
2019-02-16T00:27:54.368Z,25.11
2019-02-16T00:28:53.376Z,25.03
2019-02-16T00:29:54.399Z,25.03
2019-02-16T00:30:53.405Z,25.10
2019-02-16T00:31:53.424Z,25.04
2019-02-16T00:32:55.757Z,25.04
2019-02-16T00:33:53.463Z,25.01
2019-02-16T00:34:54.487Z,25.04
2019-02-16T00:35:53.498Z,25.01
2019-02-16T00:36:53.508Z,24.92
2019-02-16T00:37:54.543Z,24.96
2019-02-16T00:38:54.204Z,24.91
2019-02-16T00:39:54.572Z,24.89
2019-02-16T00:40:53.579Z,24.91
2019-02-16T00:41:53.597Z,24.98
2019-02-16T00:42:54.624Z,24.86
2019-02-16T00:43:53.651Z,24.95
2019-02-16T00:44:54.660Z,24.92
2019-02-16T00:45:53.682Z,24.88
2019-02-16T00:46:53.683Z,25.01
2019-02-16T00:47:54.712Z,25.03
2019-02-16T00:48:53.794Z,25.07
2019-02-16T00:49:54.746Z,25.06
2019-02-16T00:50:53.752Z,25.06
2019-02-16T00:51:53.765Z,24.98
2019-02-16T00:52:54.798Z,24.88
2019-02-16T00:53:53.811Z,24.91
2019-02-16T00:54:54.829Z,25.03
2019-02-16T00:55:53.839Z,25.04
2019-02-16T00:56:53.848Z,24.96
2019-02-16T00:57:54.993Z,25.07
2019-02-16T00:58:53.881Z,25.03
2019-02-16T00:59:54.928Z,25.10
2019-02-16T01:00:53.925Z,25.03
2019-02-16T01:01:53.935Z,25.13
2019-02-16T01:02:54.969Z,25.08
2019-02-16T01:03:53.963Z,25.08
2019-02-16T01:04:55.003Z,25.11
2019-02-16T01:05:54.012Z,25.14
2019-02-16T01:06:54.027Z,25.11
2019-02-16T01:07:55.075Z,25.18
2019-02-16T01:08:54.056Z,25.14
2019-02-16T01:09:55.085Z,25.11
2019-02-16T01:10:54.102Z,25.03
2019-02-16T01:11:54.111Z,25.03
2019-02-16T01:12:55.133Z,24.85
2019-02-16T01:13:54.141Z,24.92
2019-02-16T01:14:55.166Z,24.96
2019-02-16T01:15:54.200Z,24.93
2019-02-16T01:16:54.197Z,24.95
2019-02-16T01:17:55.223Z,25.03
2019-02-16T01:18:54.227Z,25.03
2019-02-16T01:19:55.267Z,25.00
2019-02-16T01:20:54.261Z,25.01
2019-02-16T01:21:54.283Z,25.07
2019-02-16T01:22:55.310Z,25.06
2019-02-16T01:23:54.321Z,25.04
2019-02-16T01:24:55.337Z,25.06
2019-02-16T01:25:54.352Z,25.00
2019-02-16T01:26:54.359Z,25.01
2019-02-16T01:27:55.410Z,25.01
2019-02-16T01:28:54.391Z,25.07
2019-02-16T01:29:55.427Z,25.04
2019-02-16T01:30:54.431Z,25.00
2019-02-16T01:31:54.448Z,25.00
2019-02-16T01:32:55.477Z,25.00
2019-02-16T01:33:54.486Z,25.10
2019-02-16T01:34:55.513Z,25.03
2019-02-16T01:35:54.529Z,25.13
2019-02-16T01:36:54.540Z,25.19
2019-02-16T01:37:55.561Z,25.13
2019-02-16T01:38:54.574Z,25.07
2019-02-16T01:39:55.615Z,25.01
2019-02-16T01:40:54.607Z,25.07
2019-02-16T01:41:54.634Z,25.01
2019-02-16T01:42:55.651Z,25.06
2019-02-16T01:43:54.655Z,25.08
2019-02-16T01:44:55.692Z,25.11
2019-02-16T01:45:54.684Z,25.10
2019-02-16T01:46:54.710Z,25.06
2019-02-16T01:47:55.737Z,25.00
2019-02-16T01:48:54.741Z,25.04
2019-02-16T01:49:55.772Z,25.08
2019-02-16T01:50:54.829Z,25.03
2019-02-16T01:51:54.804Z,25.03
2019-02-16T01:52:55.823Z,25.08
2019-02-16T01:53:54.825Z,25.06
2019-02-16T01:54:55.858Z,25.01
2019-02-16T01:55:54.861Z,25.10
2019-02-16T01:56:54.873Z,25.04
2019-02-16T01:57:55.901Z,25.07
2019-02-16T01:58:54.905Z,24.93
2019-02-16T01:59:55.990Z,24.98
2019-02-16T02:00:54.942Z,25.00
2019-02-16T02:01:54.968Z,24.91
2019-02-16T02:02:55.995Z,24.93
2019-02-16T02:03:55.000Z,24.93
2019-02-16T02:04:56.034Z,24.93
2019-02-16T02:05:55.034Z,24.92
2019-02-16T02:06:55.049Z,25.01
2019-02-16T02:07:56.072Z,25.00
2019-02-16T02:08:55.081Z,24.86
2019-02-16T02:09:56.109Z,24.89
2019-02-16T02:10:55.123Z,25.03
2019-02-16T02:11:55.133Z,25.10
2019-02-16T02:12:56.162Z,25.13
2019-02-16T02:13:55.174Z,24.93
2019-02-16T02:14:56.197Z,24.91
2019-02-16T02:15:55.207Z,24.96
2019-02-16T02:16:55.225Z,25.06
2019-02-16T02:17:56.251Z,25.15
2019-02-16T02:18:55.253Z,25.11
2019-02-16T02:19:56.280Z,25.14
2019-02-16T02:20:55.287Z,25.14
2019-02-16T02:21:55.302Z,25.22
2019-02-16T02:22:56.338Z,25.11
2019-02-16T02:23:55.344Z,25.13
2019-02-16T02:24:56.374Z,25.13
2019-02-16T02:25:55.378Z,25.15
2019-02-16T02:26:55.395Z,25.19
2019-02-16T02:27:56.422Z,25.25
2019-02-16T02:28:55.423Z,25.23
2019-02-16T02:29:56.452Z,25.20
2019-02-16T02:30:55.460Z,25.20
2019-02-16T02:31:55.473Z,25.26
2019-02-16T02:32:56.505Z,25.32
2019-02-16T02:33:55.512Z,25.38
2019-02-16T02:34:56.542Z,25.29
2019-02-16T02:35:55.573Z,25.23
2019-02-16T02:36:55.566Z,25.32
2019-02-16T02:37:56.597Z,25.38
2019-02-16T02:38:55.603Z,25.40
2019-02-16T02:39:56.656Z,25.33
2019-02-16T02:40:55.633Z,25.30
2019-02-16T02:41:55.646Z,25.32
2019-02-16T02:42:56.678Z,25.30
2019-02-16T02:43:55.682Z,25.37
2019-02-16T02:44:56.763Z,25.38
2019-02-16T02:45:55.766Z,25.41
2019-02-16T02:46:55.737Z,25.37
2019-02-16T02:47:56.786Z,25.43
2019-02-16T02:48:55.874Z,25.35
2019-02-16T02:49:56.805Z,25.33
2019-02-16T02:50:55.820Z,25.33
2019-02-16T02:51:55.819Z,25.38
2019-02-16T02:52:56.862Z,25.45
2019-02-16T02:53:55.854Z,25.47
2019-02-16T02:54:56.963Z,25.48
2019-02-16T02:55:55.884Z,25.44
2019-02-16T02:56:55.916Z,25.43
2019-02-16T02:57:56.939Z,25.43
2019-02-16T02:58:55.937Z,25.47
2019-02-16T02:59:56.978Z,25.47
2019-02-16T03:00:55.979Z,25.55
2019-02-16T03:01:55.991Z,25.53
2019-02-16T03:02:57.018Z,25.50
2019-02-16T03:03:56.026Z,25.59
2019-02-16T03:04:57.062Z,25.60
2019-02-16T03:05:56.071Z,25.60
2019-02-16T03:06:56.080Z,25.60
2019-02-16T03:07:57.110Z,25.48
2019-02-16T03:08:56.112Z,25.51
2019-02-16T03:09:57.155Z,25.55
2019-02-16T03:10:56.157Z,25.56
2019-02-16T03:11:56.166Z,25.51
2019-02-16T03:12:57.196Z,25.55
2019-02-16T03:13:56.200Z,25.53
2019-02-16T03:14:57.229Z,25.48
2019-02-16T03:15:56.233Z,25.62
2019-02-16T03:16:56.252Z,25.65
2019-02-16T03:17:57.283Z,25.67
2019-02-16T03:18:56.309Z,25.62
2019-02-16T03:19:57.321Z,25.56
2019-02-16T03:20:56.330Z,25.70
2019-02-16T03:22:02.463Z,25.66
2019-02-16T03:22:57.366Z,25.67
2019-02-16T03:23:56.372Z,25.63
2019-02-16T03:24:57.408Z,25.63
2019-02-16T03:25:56.415Z,25.62
2019-02-16T03:26:56.429Z,25.59
2019-02-16T03:27:57.457Z,25.66
2019-02-16T03:28:56.524Z,25.66
2019-02-16T03:29:57.501Z,25.66
2019-02-16T03:30:56.497Z,25.69
2019-02-16T03:31:56.516Z,25.59
2019-02-16T03:32:57.557Z,25.70
2019-02-16T03:33:56.575Z,25.77
2019-02-16T03:34:57.584Z,25.70
2019-02-16T03:35:56.585Z,25.81
2019-02-16T03:36:56.603Z,25.77
2019-02-16T03:37:57.636Z,25.74
2019-02-16T03:38:56.640Z,25.81
2019-02-16T03:39:57.667Z,25.80
2019-02-16T03:40:56.671Z,25.81
2019-02-16T03:41:56.689Z,25.82
2019-02-16T03:42:57.726Z,25.85
2019-02-16T03:43:56.733Z,25.78
2019-02-16T03:44:57.764Z,25.92
2019-02-16T03:45:56.779Z,25.82
2019-02-16T03:46:56.965Z,25.81
2019-02-16T03:47:57.837Z,25.80
2019-02-16T03:48:56.953Z,25.80
2019-02-16T03:49:58.318Z,25.90
2019-02-16T03:50:57.501Z,25.81
2019-02-16T03:51:56.887Z,25.88
2019-02-16T03:52:57.899Z,25.87
2019-02-16T03:53:56.954Z,25.84
2019-02-16T03:54:58.147Z,25.80
2019-02-16T03:55:57.392Z,25.81
2019-02-16T03:56:57.154Z,25.92
2019-02-16T03:57:59.042Z,25.92
2019-02-16T03:58:57.090Z,25.97
2019-02-16T03:59:58.313Z,26.00
2019-02-16T04:00:57.027Z,25.97
2019-02-16T04:01:57.050Z,25.97
2019-02-16T04:02:58.080Z,25.88
2019-02-16T04:03:57.079Z,25.90
2019-02-16T04:04:58.132Z,25.93
2019-02-16T04:05:57.118Z,26.04
2019-02-16T04:06:57.134Z,26.00
2019-02-16T04:07:58.168Z,25.99
2019-02-16T04:08:57.175Z,25.96
2019-02-16T04:09:58.233Z,26.03
2019-02-16T04:10:57.200Z,26.06
2019-02-16T04:11:57.218Z,25.97
2019-02-16T04:12:58.254Z,26.00
2019-02-16T04:13:57.254Z,26.04
2019-02-16T04:14:58.289Z,26.03
2019-02-16T04:15:57.290Z,26.11
2019-02-16T04:16:57.325Z,26.19
2019-02-16T04:17:58.434Z,26.07
2019-02-16T04:18:57.335Z,26.16
2019-02-16T04:19:58.378Z,26.10
2019-02-16T04:20:57.377Z,26.07
2019-02-16T04:21:57.400Z,26.06
2019-02-16T04:22:58.426Z,26.10
2019-02-16T04:23:57.470Z,26.12
2019-02-16T04:24:58.484Z,26.03
2019-02-16T04:25:57.463Z,26.02
2019-02-16T04:26:57.485Z,26.11
2019-02-16T04:27:58.518Z,26.12
2019-02-16T04:28:57.519Z,26.07
2019-02-16T04:29:58.549Z,26.07
2019-02-16T04:30:57.558Z,26.12
2019-02-16T04:31:57.576Z,26.07
2019-02-16T04:32:58.604Z,26.03
2019-02-16T04:33:57.608Z,26.07
2019-02-16T04:34:58.642Z,26.07
2019-02-16T04:35:57.649Z,26.02
2019-02-16T04:36:57.668Z,26.07
2019-02-16T04:37:58.694Z,26.12
2019-02-16T04:38:57.707Z,26.00
2019-02-16T04:39:58.734Z,26.06
2019-02-16T04:40:57.731Z,26.11
2019-02-16T04:41:57.752Z,26.11
2019-02-16T04:42:58.785Z,26.11
2019-02-16T04:43:57.792Z,26.12
2019-02-16T04:44:58.819Z,26.10
2019-02-16T04:45:57.830Z,26.07
2019-02-16T04:46:57.838Z,26.11
2019-02-16T04:47:58.867Z,26.04
2019-02-16T04:48:57.888Z,26.06
2019-02-16T04:49:58.912Z,26.12
2019-02-16T04:50:57.910Z,26.26
2019-02-16T04:51:57.935Z,26.18
2019-02-16T04:52:58.965Z,26.26
2019-02-16T04:53:57.975Z,26.30
2019-02-16T04:54:58.997Z,26.33
2019-02-16T04:55:58.007Z,26.31
2019-02-16T04:56:58.024Z,26.30
2019-02-16T04:57:59.050Z,26.37
2019-02-16T04:58:58.055Z,26.30
2019-02-16T04:59:59.088Z,26.23
2019-02-16T05:00:58.100Z,26.30
2019-02-16T05:01:58.166Z,26.23
2019-02-16T05:02:59.135Z,26.28
2019-02-16T05:03:58.143Z,26.28
2019-02-16T05:04:59.360Z,26.31
2019-02-16T05:05:59.744Z,26.28
2019-02-16T05:06:58.205Z,26.25
2019-02-16T05:07:59.242Z,26.22
2019-02-16T05:08:58.239Z,26.23
2019-02-16T05:09:59.264Z,26.28
2019-02-16T05:10:58.269Z,26.25
2019-02-16T05:11:58.292Z,26.23
2019-02-16T05:12:59.337Z,26.28
2019-02-16T05:13:58.325Z,26.31
2019-02-16T05:14:59.357Z,26.34
2019-02-16T05:15:58.356Z,26.40
2019-02-16T05:16:58.446Z,26.38
2019-02-16T05:17:59.427Z,26.35
2019-02-16T05:18:58.409Z,26.38
2019-02-16T05:19:59.443Z,26.40
2019-02-16T05:20:58.449Z,26.28
2019-02-16T05:21:58.468Z,26.34
2019-02-16T05:22:59.496Z,26.41
2019-02-16T05:23:58.502Z,26.41
2019-02-16T05:24:59.564Z,26.35
2019-02-16T05:25:58.538Z,26.45
2019-02-16T05:26:58.567Z,26.50
2019-02-16T05:27:59.590Z,26.60
2019-02-16T05:28:58.584Z,26.55
2019-02-16T05:29:59.677Z,26.52
2019-02-16T05:30:58.631Z,26.59
2019-02-16T05:31:58.803Z,26.59
2019-02-16T05:32:59.672Z,26.60
2019-02-16T05:33:58.679Z,26.57
2019-02-16T05:34:59.714Z,26.53
2019-02-16T05:35:58.732Z,26.65
2019-02-16T05:36:58.749Z,26.74
2019-02-16T05:37:59.771Z,26.63
2019-02-16T05:38:58.787Z,26.65
2019-02-16T05:39:59.804Z,26.70
2019-02-16T05:40:58.823Z,26.65
2019-02-16T05:41:58.833Z,26.67
2019-02-16T05:42:59.854Z,26.63
2019-02-16T05:43:58.860Z,26.67
2019-02-16T05:44:59.900Z,26.70
2019-02-16T05:45:58.902Z,26.78
2019-02-16T05:46:58.941Z,26.74
2019-02-16T05:47:59.951Z,26.87
2019-02-16T05:48:58.970Z,26.81
2019-02-16T05:49:59.992Z,26.71
2019-02-16T05:50:58.985Z,26.71
2019-02-16T05:51:59.011Z,26.75
2019-02-16T05:53:00.044Z,26.87
2019-02-16T05:53:59.050Z,26.72
2019-02-16T05:55:00.226Z,26.74
2019-02-16T05:55:59.075Z,26.77
2019-02-16T05:56:59.111Z,26.68
2019-02-16T05:58:00.135Z,26.72
2019-02-16T05:58:59.139Z,26.74
2019-02-16T06:00:00.358Z,26.70
2019-02-16T06:00:59.192Z,26.68
2019-02-16T06:01:59.189Z,26.80
2019-02-16T06:03:00.239Z,26.90
2019-02-16T06:03:59.236Z,26.81
2019-02-16T06:05:00.335Z,26.80
2019-02-16T06:05:59.320Z,26.67
2019-02-16T06:06:59.285Z,26.72
2019-02-16T06:08:00.338Z,26.86
2019-02-16T06:08:59.312Z,26.82
2019-02-16T06:10:00.348Z,26.82
2019-02-16T06:10:59.391Z,26.87
2019-02-16T06:11:59.377Z,26.75
2019-02-16T06:13:00.397Z,26.86
2019-02-16T06:13:59.409Z,26.87
2019-02-16T06:15:00.445Z,26.96
2019-02-16T06:15:59.444Z,26.86
2019-02-16T06:16:59.470Z,26.95
2019-02-16T06:18:00.500Z,27.00
2019-02-16T06:18:59.514Z,26.93
2019-02-16T06:20:00.535Z,26.85
2019-02-16T06:21:01.706Z,26.85
2019-02-16T06:21:59.630Z,26.97
2019-02-16T06:23:04.338Z,26.87
2019-02-16T06:23:59.593Z,26.89
2019-02-16T06:25:00.633Z,26.90
2019-02-16T06:25:59.637Z,26.89
2019-02-16T06:26:59.654Z,26.85
2019-02-16T06:28:00.682Z,26.82
2019-02-16T06:28:59.691Z,26.86
2019-02-16T06:30:00.716Z,26.99
2019-02-16T06:30:59.764Z,26.92
2019-02-16T06:31:59.743Z,27.05
2019-02-16T06:33:00.827Z,26.93
2019-02-16T06:33:59.814Z,26.95
2019-02-16T06:35:00.892Z,26.87
2019-02-16T06:35:59.815Z,27.00
2019-02-16T06:36:59.830Z,26.96
2019-02-16T06:38:00.868Z,26.95
2019-02-16T06:38:59.870Z,27.08
2019-02-16T06:40:00.897Z,27.12
2019-02-16T06:40:59.906Z,27.07
2019-02-16T06:41:59.920Z,27.07
2019-02-16T06:43:00.955Z,27.08
2019-02-16T06:43:59.998Z,27.00
2019-02-16T06:45:00.991Z,26.99
2019-02-16T06:46:00.843Z,26.95
2019-02-16T06:47:00.010Z,26.96
2019-02-16T06:48:01.057Z,26.90
2019-02-16T06:49:00.064Z,26.90
2019-02-16T06:50:01.088Z,26.97
2019-02-16T06:51:00.088Z,27.05
2019-02-16T06:52:00.115Z,27.02
2019-02-16T06:53:01.185Z,26.93
2019-02-16T06:54:00.155Z,26.92
2019-02-16T06:55:01.189Z,26.92
2019-02-16T06:56:00.190Z,26.92
2019-02-16T06:57:00.220Z,26.89
2019-02-16T06:58:01.235Z,26.87
2019-02-16T06:59:00.239Z,26.74
2019-02-16T07:00:01.275Z,26.85
2019-02-16T07:01:00.303Z,26.72
2019-02-16T07:02:00.317Z,26.75
2019-02-16T07:03:01.330Z,26.74
2019-02-16T07:04:00.338Z,26.63
2019-02-16T07:05:01.457Z,26.68
2019-02-16T07:06:00.374Z,26.77
2019-02-16T07:07:00.389Z,26.86
2019-02-16T07:08:01.423Z,26.80
2019-02-16T07:09:00.427Z,26.77
2019-02-16T07:10:01.454Z,26.78
2019-02-16T07:11:00.512Z,26.82
2019-02-16T07:12:00.546Z,26.86
2019-02-16T07:13:01.507Z,26.71
2019-02-16T07:14:00.514Z,26.75
2019-02-16T07:15:01.544Z,26.82
2019-02-16T07:16:00.549Z,26.72
2019-02-16T07:17:00.575Z,26.78
2019-02-16T07:18:01.614Z,26.77
2019-02-16T07:19:00.603Z,26.86
2019-02-16T07:20:01.643Z,26.86
2019-02-16T07:21:00.649Z,26.87
2019-02-16T07:22:00.659Z,26.82
2019-02-16T07:23:01.703Z,26.87
2019-02-16T07:24:00.701Z,26.86
2019-02-16T07:25:01.753Z,26.80
2019-02-16T07:26:00.732Z,26.85
2019-02-16T07:27:00.759Z,26.78
2019-02-16T07:28:01.788Z,26.93
2019-02-16T07:29:00.835Z,26.92
2019-02-16T07:30:01.825Z,26.87
2019-02-16T07:31:00.829Z,26.85
2019-02-16T07:32:00.894Z,26.71
2019-02-16T07:33:01.874Z,26.89
2019-02-16T07:34:00.883Z,26.86
2019-02-16T07:35:01.914Z,26.80
2019-02-16T07:36:00.921Z,26.77
2019-02-16T07:37:00.935Z,26.77
2019-02-16T07:38:01.998Z,26.72
2019-02-16T07:39:00.982Z,26.78
2019-02-16T07:40:02.011Z,26.78
2019-02-16T07:41:01.015Z,26.74
2019-02-16T07:42:01.035Z,26.74
2019-02-16T07:43:02.055Z,26.74
2019-02-16T07:44:01.064Z,26.68
2019-02-16T07:45:02.093Z,26.70
2019-02-16T07:46:01.101Z,26.75
2019-02-16T07:47:01.118Z,26.74
2019-02-16T07:48:02.161Z,26.72
2019-02-16T07:49:01.157Z,26.71
2019-02-16T07:50:02.191Z,26.78
2019-02-16T07:51:01.190Z,26.81
2019-02-16T07:52:01.207Z,26.86
2019-02-16T07:53:02.243Z,26.85
2019-02-16T07:54:01.244Z,26.87
2019-02-16T07:55:02.279Z,26.92
2019-02-16T07:56:01.289Z,26.87
2019-02-16T07:57:01.306Z,26.80
2019-02-16T07:58:02.335Z,26.95
2019-02-16T07:59:01.345Z,26.89
2019-02-16T08:00:02.374Z,26.92
2019-02-16T08:01:01.401Z,26.86
2019-02-16T08:02:01.399Z,26.87
2019-02-16T08:03:02.522Z,26.87
2019-02-16T08:04:01.428Z,26.86
2019-02-16T08:05:02.468Z,26.85
2019-02-16T08:06:01.465Z,26.74
2019-02-16T08:07:01.482Z,26.75
2019-02-16T08:08:02.517Z,26.74
2019-02-16T08:09:01.535Z,26.85
2019-02-16T08:10:02.554Z,26.87
2019-02-16T08:11:01.562Z,26.90
2019-02-16T08:12:01.584Z,27.00
2019-02-16T08:13:02.622Z,26.99
2019-02-16T08:14:01.626Z,26.93
2019-02-16T08:15:02.662Z,27.05
2019-02-16T08:16:01.651Z,26.99
2019-02-16T08:17:01.681Z,26.97
2019-02-16T08:18:02.700Z,27.02
2019-02-16T08:19:01.705Z,26.97
2019-02-16T08:20:02.739Z,26.99
2019-02-16T08:21:01.745Z,26.96
2019-02-16T08:22:01.768Z,26.97
2019-02-16T08:23:02.791Z,27.15
2019-02-16T08:24:01.805Z,27.08
2019-02-16T08:25:02.827Z,27.11
2019-02-16T08:26:01.836Z,26.95
2019-02-16T08:27:01.855Z,26.89
2019-02-16T08:28:02.898Z,26.90
2019-02-16T08:29:01.893Z,26.99
2019-02-16T08:30:02.917Z,26.96
2019-02-16T08:31:01.959Z,26.90
2019-02-16T08:32:01.949Z,26.81
2019-02-16T08:33:02.974Z,26.87
2019-02-16T08:34:01.978Z,26.86
2019-02-16T08:35:03.022Z,26.80
2019-02-16T08:36:02.026Z,26.71
2019-02-16T08:37:02.039Z,26.63
2019-02-16T08:38:03.078Z,26.62
2019-02-16T08:39:02.075Z,26.63
2019-02-16T08:40:03.110Z,26.68
2019-02-16T08:41:02.108Z,26.71
2019-02-16T08:42:02.130Z,26.71
2019-02-16T08:43:03.163Z,26.72
2019-02-16T08:44:02.195Z,26.68
2019-02-16T08:45:03.226Z,26.56
2019-02-16T08:46:02.217Z,26.59
2019-02-16T08:47:02.218Z,26.67
2019-02-16T08:48:03.249Z,26.59
2019-02-16T08:49:02.273Z,26.63
2019-02-16T08:50:03.282Z,26.74
2019-02-16T08:51:02.297Z,26.67
2019-02-16T08:52:02.311Z,26.67
2019-02-16T08:53:03.339Z,26.62
2019-02-16T08:54:02.363Z,26.60
2019-02-16T08:55:03.381Z,26.65
2019-02-16T08:56:02.408Z,26.65
2019-02-16T08:57:02.426Z,26.63
2019-02-16T08:58:03.427Z,26.56
2019-02-16T08:59:02.434Z,26.57
2019-02-16T09:00:03.466Z,26.60
2019-02-16T09:01:02.479Z,26.56
2019-02-16T09:02:02.506Z,26.52
2019-02-16T09:03:03.577Z,26.52
2019-02-16T09:04:02.537Z,26.55
2019-02-16T09:05:03.560Z,26.59
2019-02-16T09:06:02.567Z,26.52
2019-02-16T09:07:02.594Z,26.49
2019-02-16T09:08:03.653Z,26.52
2019-02-16T09:09:02.629Z,26.38
2019-02-16T09:10:03.647Z,26.38
2019-02-16T09:11:02.671Z,26.52
2019-02-16T09:12:02.673Z,26.53
2019-02-16T09:13:03.706Z,26.40
2019-02-16T09:14:02.732Z,26.50
2019-02-16T09:15:03.743Z,26.55
2019-02-16T09:16:02.755Z,26.59
2019-02-16T09:17:02.759Z,26.59
2019-02-16T09:18:03.790Z,26.59
2019-02-16T09:19:02.810Z,26.43
2019-02-16T09:20:03.838Z,26.50
2019-02-16T09:21:02.841Z,26.48
2019-02-16T09:22:02.856Z,26.55
2019-02-16T09:23:03.893Z,26.57
2019-02-16T09:24:02.895Z,26.53
2019-02-16T09:25:03.938Z,26.49
2019-02-16T09:26:02.927Z,26.56
2019-02-16T09:27:02.998Z,26.55
2019-02-16T09:28:03.971Z,26.63
2019-02-16T09:29:02.987Z,26.55
2019-02-16T09:30:04.013Z,26.53
2019-02-16T09:31:03.025Z,26.44
2019-02-16T09:32:03.041Z,26.49
2019-02-16T09:33:04.129Z,26.55
2019-02-16T09:34:03.096Z,26.60
2019-02-16T09:35:04.103Z,26.59
2019-02-16T09:36:03.108Z,26.57
2019-02-16T09:37:03.125Z,26.50
2019-02-16T09:38:04.157Z,26.53
2019-02-16T09:39:03.160Z,26.53
2019-02-16T09:40:04.195Z,26.60
2019-02-16T09:41:03.199Z,26.49
2019-02-16T09:42:03.211Z,26.55
2019-02-16T09:43:04.247Z,26.60
2019-02-16T09:44:03.427Z,26.55
2019-02-16T09:45:04.290Z,26.57
2019-02-16T09:46:03.646Z,26.38
2019-02-16T09:47:03.456Z,26.50
2019-02-16T09:48:04.344Z,26.50
2019-02-16T09:49:03.347Z,26.45
2019-02-16T09:50:04.371Z,26.50
2019-02-16T09:51:03.384Z,26.49
2019-02-16T09:52:03.396Z,26.53
2019-02-16T09:53:04.426Z,26.57
2019-02-16T09:54:08.471Z,26.49
2019-02-16T09:55:04.474Z,26.34
2019-02-16T09:56:03.467Z,26.37
2019-02-16T09:57:03.489Z,26.38
2019-02-16T09:58:04.516Z,26.48
2019-02-16T09:59:03.883Z,26.52
2019-02-16T10:00:04.556Z,26.52
2019-02-16T10:01:03.566Z,26.49
2019-02-16T10:02:03.573Z,26.55
2019-02-16T10:03:04.608Z,26.53
2019-02-16T10:04:03.623Z,26.55
2019-02-16T10:05:04.654Z,26.49
2019-02-16T10:06:03.655Z,26.50
2019-02-16T10:07:03.670Z,26.48
2019-02-16T10:08:04.704Z,26.55
2019-02-16T10:09:03.707Z,26.50
2019-02-16T10:10:04.739Z,26.50
2019-02-16T10:11:03.739Z,26.50
2019-02-16T10:12:03.760Z,26.53
2019-02-16T10:13:04.792Z,26.50
2019-02-16T10:14:03.794Z,26.50
2019-02-16T10:15:06.824Z,26.50
2019-02-16T10:16:03.830Z,26.50
2019-02-16T10:17:03.856Z,26.43
2019-02-16T10:18:04.880Z,26.38
2019-02-16T10:19:03.881Z,26.49
2019-02-16T10:20:04.909Z,26.49
2019-02-16T10:21:03.923Z,26.49
2019-02-16T10:22:03.935Z,26.44
2019-02-16T10:23:04.969Z,26.49
2019-02-16T10:24:03.979Z,26.50
2019-02-16T10:25:05.039Z,26.33
2019-02-16T10:26:04.009Z,26.30
2019-02-16T10:27:04.035Z,26.37
2019-02-16T10:28:05.105Z,26.34
2019-02-16T10:29:04.066Z,26.30
2019-02-16T10:30:05.101Z,26.33
2019-02-16T10:31:04.103Z,26.35
2019-02-16T10:32:04.122Z,26.41
2019-02-16T10:33:05.155Z,26.38
2019-02-16T10:34:04.155Z,26.34
2019-02-16T10:35:05.187Z,26.33
2019-02-16T10:36:04.205Z,26.34
2019-02-16T10:37:04.203Z,26.38
2019-02-16T10:38:05.315Z,26.33
2019-02-16T10:39:04.242Z,26.33
2019-02-16T10:40:05.693Z,26.40
2019-02-16T10:41:04.303Z,26.41
2019-02-16T10:42:04.346Z,26.35
2019-02-16T10:43:05.326Z,26.41
2019-02-16T10:44:04.345Z,26.37
2019-02-16T10:45:05.390Z,26.35
2019-02-16T10:46:04.374Z,26.37
2019-02-16T10:47:04.382Z,26.38
2019-02-16T10:48:05.431Z,26.43
2019-02-16T10:49:04.427Z,26.49
2019-02-16T10:50:05.456Z,26.37
2019-02-16T10:51:04.462Z,26.37
2019-02-16T10:52:04.475Z,26.40
2019-02-16T10:53:05.502Z,26.43
2019-02-16T10:54:04.517Z,26.38
2019-02-16T10:55:05.546Z,26.41
2019-02-16T10:56:04.546Z,26.40
2019-02-16T10:57:04.569Z,26.35
2019-02-16T10:58:05.604Z,26.33
2019-02-16T10:59:04.604Z,26.34
2019-02-16T11:00:05.630Z,26.41
2019-02-16T11:01:04.664Z,26.37
2019-02-16T11:02:04.653Z,26.35
2019-02-16T11:03:05.872Z,26.38
2019-02-16T11:04:04.694Z,26.34
2019-02-16T11:05:05.732Z,26.37
2019-02-16T11:06:04.742Z,26.41
2019-02-16T11:07:04.783Z,26.41
2019-02-16T11:08:05.774Z,26.33
2019-02-16T11:09:04.785Z,26.25
2019-02-16T11:10:05.813Z,26.26
2019-02-16T11:11:04.816Z,26.28
2019-02-16T11:12:04.843Z,26.20
2019-02-16T11:13:05.870Z,26.33
2019-02-16T11:14:04.878Z,26.35
2019-02-16T11:15:05.900Z,26.31
2019-02-16T11:16:04.910Z,26.34
2019-02-16T11:17:04.926Z,26.38
2019-02-16T11:18:05.958Z,26.35
2019-02-16T11:19:04.987Z,26.33
2019-02-16T11:20:06.038Z,26.23
2019-02-16T11:21:04.997Z,26.35
2019-02-16T11:22:05.060Z,26.34
2019-02-16T11:23:06.044Z,26.41
2019-02-16T11:24:05.089Z,26.38
2019-02-16T11:25:06.094Z,26.38
2019-02-16T11:26:05.087Z,26.41
2019-02-16T11:27:05.141Z,26.41
2019-02-16T11:28:06.201Z,26.30
2019-02-16T11:29:05.144Z,26.38
2019-02-16T11:30:06.182Z,26.34
2019-02-16T11:31:05.187Z,26.33
2019-02-16T11:32:05.247Z,26.37
2019-02-16T11:33:06.222Z,26.34
2019-02-16T11:34:05.235Z,26.30
2019-02-16T11:35:06.257Z,26.34
2019-02-16T11:36:05.286Z,26.33
2019-02-16T11:37:05.284Z,26.41
2019-02-16T11:38:06.330Z,26.37
2019-02-16T11:39:05.313Z,26.30
2019-02-16T11:40:06.359Z,26.25
2019-02-16T11:41:05.360Z,26.25
2019-02-16T11:42:05.373Z,26.22
2019-02-16T11:43:06.405Z,26.35
2019-02-16T11:44:05.440Z,26.37
2019-02-16T11:45:06.443Z,26.38
2019-02-16T11:46:05.445Z,26.33
2019-02-16T11:47:05.469Z,26.25
2019-02-16T11:48:06.492Z,26.20
2019-02-16T11:49:05.507Z,26.25
2019-02-16T11:50:06.531Z,26.22
2019-02-16T11:51:05.540Z,26.31
2019-02-16T11:52:05.598Z,26.25
2019-02-16T11:53:06.600Z,26.26
2019-02-16T11:54:05.589Z,26.33
2019-02-16T11:55:06.623Z,26.25
2019-02-16T11:56:05.625Z,26.31
2019-02-16T11:57:05.641Z,26.38
2019-02-16T11:58:06.670Z,26.30
2019-02-16T11:59:05.690Z,26.37
2019-02-16T12:00:06.712Z,26.38
2019-02-16T12:01:05.727Z,26.38
2019-02-16T12:02:05.748Z,26.25
2019-02-16T12:03:06.756Z,26.33
2019-02-16T12:04:05.783Z,26.30
2019-02-16T12:05:06.832Z,26.43
2019-02-16T12:06:05.840Z,26.37
2019-02-16T12:07:05.823Z,26.43
2019-02-16T12:08:06.853Z,26.41
2019-02-16T12:09:05.856Z,26.38
2019-02-16T12:10:06.907Z,26.37
2019-02-16T12:11:05.892Z,26.38
2019-02-16T12:12:05.933Z,26.41
2019-02-16T12:13:06.945Z,26.34
2019-02-16T12:14:05.953Z,26.26
2019-02-16T12:15:06.975Z,26.25
2019-02-16T12:16:05.994Z,26.20
2019-02-16T12:17:06.043Z,26.20
2019-02-16T12:18:07.038Z,26.25
2019-02-16T12:19:06.036Z,26.26
2019-02-16T12:20:07.063Z,26.26
2019-02-16T12:21:06.071Z,26.30
2019-02-16T12:22:06.098Z,26.34
2019-02-16T12:23:07.120Z,26.37
2019-02-16T12:24:06.134Z,26.38
2019-02-16T12:25:07.154Z,26.33
2019-02-16T12:26:06.166Z,26.34
2019-02-16T12:27:06.179Z,26.33
2019-02-16T12:28:07.222Z,26.40
2019-02-16T12:29:06.223Z,26.31
2019-02-16T12:30:07.319Z,26.26
2019-02-16T12:31:06.266Z,26.19
2019-02-16T12:32:06.558Z,26.26
2019-02-16T12:33:10.295Z,26.28
2019-02-16T12:34:06.304Z,26.28
2019-02-16T12:35:07.333Z,26.31
2019-02-16T12:36:06.337Z,26.28
2019-02-16T12:37:06.360Z,26.30
2019-02-16T12:38:07.469Z,26.23
2019-02-16T12:39:06.394Z,26.31
2019-02-16T12:40:07.435Z,26.22
2019-02-16T12:41:06.428Z,26.25
2019-02-16T12:42:06.452Z,26.22
2019-02-16T12:43:07.476Z,26.23
2019-02-16T12:44:06.482Z,26.23
2019-02-16T12:45:07.519Z,26.26
2019-02-16T12:46:06.535Z,26.20
2019-02-16T12:47:06.537Z,26.25
2019-02-16T12:48:07.564Z,26.30
2019-02-16T12:49:06.580Z,26.25
2019-02-16T12:50:07.601Z,26.33
2019-02-16T12:51:06.617Z,26.26
2019-02-16T12:52:06.651Z,26.28
2019-02-16T12:53:08.310Z,26.20